Time,TemperatureF,DewpointF,PressureIn,WindDirection,WindDirectionDegrees,WindSpeedMPH,WindSpeedGustMPH,Humidity,HourlyPrecipIn,Conditions,Clouds,dailyrainin,SoftwareType,DateUTC
2013-11-30 00:01:00,13.7,11.3,30.68,SE,134,0.0,0.0,90,0.00,,,0.00,WeatherCatV1.20B785,2013-11-30 05:01:00,
2013-11-30 00:02:00,13.7,11.6,30.68,SE,134,0.0,0.0,91,0.00,,,0.00,WeatherCatV1.20B785,2013-11-30 05:02:00,
2013-11-30 00:03:00,13.7,11.3,30.68,SE,134,0.0,0.0,90,0.00,,,0.00,WeatherCatV1.20B785,2013-11-30 05:03:00,
2013-11-30 00:06:00,13.8,11.4,30.68,SE,136,0.0,0.0,90,0.00,,,0.00,WeatherCatV1.20B785,2013-11-30 05:06:00,
2013-11-30 00:07:00,13.8,11.4,30.68,SE,136,0.0,0.0,90,0.00,,,0.00,WeatherCatV1.20B785,2013-11-30 05:07:00,
2013-11-30 00:12:00,13.4,11.3,30.68,SE,135,0.0,0.0,91,0.00,,,0.00,WeatherCatV1.20B785,2013-11-30 05:12:00,
2013-11-30 00:17:00,13.3,10.9,30.68,SSE,149,0.0,0.0,90,0.00,,,0.00,WeatherCatV1.20B785,2013-11-30 05:17:00,
2013-11-30 00:22:00,13.5,11.1,30.68,SSE,149,0.0,0.0,90,0.00,,,0.00,WeatherCatV1.20B785,2013-11-30 05:22:00,
2013-11-30 00:23:00,13.5,11.1,30.68,SSE,149,0.0,0.0,90,0.00,,,0.00,WeatherCatV1.20B785,2013-11-30 05:23:00,
2013-11-30 00:28:00,13.7,11.3,30.67,SSE,155,0.0,0.0,90,0.00,,,0.00,WeatherCatV1.20B785,2013-11-30 05:28:00,
2013-11-30 00:33:00,13.7,11.3,30.67,SSE,159,0.0,0.0,90,0.00,,,0.00,WeatherCatV1.20B785,2013-11-30 05:33:00,
2013-11-30 00:38:00,13.9,11.5,30.67,SSE,155,0.0,0.0,90,0.00,,,0.00,WeatherCatV1.20B785,2013-11-30 05:38:00,
2013-11-30 00:43:00,14.1,11.7,30.67,SSE,164,0.0,0.0,90,0.00,,,0.00,WeatherCatV1.20B785,2013-11-30 05:43:00,
2013-11-30 00:48:00,14.3,11.9,30.67,SSE,158,0.0,0.0,90,0.00,,,0.00,WeatherCatV1.20B785,2013-11-30 05:48:00,
2013-11-30 00:53:00,14.3,12.2,30.66,SE,146,0.0,0.0,91,0.00,,,0.00,WeatherCatV1.20B785,2013-11-30 05:53:00,
2013-11-30 00:58:00,14.3,11.9,30.66,SE,136,0.0,0.0,90,0.00,,,0.00,WeatherCatV1.20B785,2013-11-30 05:58:00,
2013-11-30 01:03:00,14.5,12.4,30.66,SE,146,0.0,0.0,91,0.00,,,0.00,WeatherCatV1.20B785,2013-11-30 06:03:00,
2013-11-30 01:08:00,14.1,12.0,30.65,SE,133,0.0,0.0,91,0.00,,,0.00,WeatherCatV1.20B785,2013-11-30 06:08:00,
2013-11-30 01:13:00,13.5,11.1,30.65,SE,143,0.0,0.0,90,0.00,,,0.00,WeatherCatV1.20B785,2013-11-30 06:13:00,
2013-11-30 01:18:00,13.3,10.9,30.65,SSE,158,0.0,0.0,90,0.00,,,0.00,WeatherCatV1.20B785,2013-11-30 06:18:00,
2013-11-30 01:23:00,13.8,11.4,30.65,SSE,154,0.0,0.0,90,0.00,,,0.00,WeatherCatV1.20B785,2013-11-30 06:23:00,
2013-11-30 01:28:00,13.4,11.3,30.65,SE,140,0.0,0.0,91,0.00,,,0.00,WeatherCatV1.20B785,2013-11-30 06:28:00,
2013-11-30 01:33:00,13.2,10.8,30.66,SSE,152,0.0,0.0,90,0.00,,,0.00,WeatherCatV1.20B785,2013-11-30 06:33:00,
2013-11-30 01:38:00,13.3,10.9,30.66,SSE,152,0.0,0.0,90,0.00,,,0.00,WeatherCatV1.20B785,2013-11-30 06:38:00,
2013-11-30 01:43:00,13.6,11.2,30.66,SE,146,0.0,0.0,90,0.00,,,0.00,WeatherCatV1.20B785,2013-11-30 06:43:00,
2013-11-30 01:48:00,13.5,11.4,30.66,SE,146,0.0,0.0,91,0.00,,,0.00,WeatherCatV1.20B785,2013-11-30 06:48:00,
2013-11-30 01:53:00,13.2,10.8,30.66,SSE,153,0.0,0.0,90,0.00,,,0.00,WeatherCatV1.20B785,2013-11-30 06:53:00,
2013-11-30 01:58:00,13.1,10.7,30.66,SSE,156,0.0,0.0,90,0.00,,,0.00,WeatherCatV1.20B785,2013-11-30 06:58:00,
2013-11-30 02:03:00,13.1,11.0,30.66,SSE,153,0.0,0.0,91,0.00,,,0.00,WeatherCatV1.20B785,2013-11-30 07:03:00,
2013-11-30 02:08:00,13.2,11.1,30.66,SSE,158,0.0,0.0,91,0.00,,,0.00,WeatherCatV1.20B785,2013-11-30 07:08:00,
2013-11-30 02:13:00,13.3,11.2,30.66,SSE,155,0.0,0.0,91,0.00,,,0.00,WeatherCatV1.20B785,2013-11-30 07:13:00,
2013-11-30 02:18:00,13.3,11.2,30.66,SE,145,0.0,0.0,91,0.00,,,0.00,WeatherCatV1.20B785,2013-11-30 07:18:00,
2013-11-30 02:23:00,13.6,11.2,30.66,SE,129,0.0,0.0,90,0.00,,,0.00,WeatherCatV1.20B785,2013-11-30 07:23:00,
2013-11-30 02:28:00,14.4,12.0,30.66,SE,132,0.0,0.0,90,0.00,,,0.00,WeatherCatV1.20B785,2013-11-30 07:28:00,
2013-11-30 02:33:00,14.9,12.5,30.66,SE,136,0.0,0.0,90,0.00,,,0.00,WeatherCatV1.20B785,2013-11-30 07:33:00,
2013-11-30 02:38:00,15.1,12.7,30.66,SE,129,0.0,0.0,90,0.00,,,0.00,WeatherCatV1.20B785,2013-11-30 07:38:00,
2013-11-30 02:43:00,15.4,13.2,30.66,SE,129,0.0,0.0,91,0.00,,,0.00,WeatherCatV1.20B785,2013-11-30 07:43:00,
2013-11-30 02:48:00,15.6,13.2,30.66,SE,129,0.0,0.0,90,0.00,,,0.00,WeatherCatV1.20B785,2013-11-30 07:48:00,
2013-11-30 02:53:00,15.8,13.4,30.65,SE,128,0.0,0.0,90,0.00,,,0.00,WeatherCatV1.20B785,2013-11-30 07:53:00,
2013-11-30 02:58:00,15.9,13.8,30.65,SE,141,0.0,0.0,91,0.00,,,0.00,WeatherCatV1.20B785,2013-11-30 07:58:00,
2013-11-30 03:03:00,15.9,13.8,30.65,SE,133,0.0,0.0,91,0.00,,,0.00,WeatherCatV1.20B785,2013-11-30 08:03:00,
2013-11-30 03:08:00,15.8,13.6,30.65,SE,135,0.0,0.0,91,0.00,,,0.00,WeatherCatV1.20B785,2013-11-30 08:08:00,
2013-11-30 03:13:00,15.4,13.0,30.65,SSE,148,0.0,0.0,90,0.00,,,0.00,WeatherCatV1.20B785,2013-11-30 08:13:00,
2013-11-30 03:18:00,15.5,13.1,30.65,SE,129,0.0,0.0,90,0.00,,,0.00,WeatherCatV1.20B785,2013-11-30 08:18:00,
2013-11-30 03:23:00,16.0,13.9,30.64,ESE,117,0.0,0.0,91,0.00,,,0.00,WeatherCatV1.20B785,2013-11-30 08:23:00,
2013-11-30 03:28:00,16.0,13.6,30.64,SE,133,0.0,0.0,90,0.00,,,0.00,WeatherCatV1.20B785,2013-11-30 08:28:00,
2013-11-30 03:33:00,16.1,13.9,30.64,SE,134,0.0,0.0,91,0.00,,,0.00,WeatherCatV1.20B785,2013-11-30 08:33:00,
2013-11-30 03:38:00,16.3,14.1,30.64,ESE,106,0.0,0.0,91,0.00,,,0.00,WeatherCatV1.20B785,2013-11-30 08:38:00,
2013-11-30 03:43:00,16.3,14.1,30.63,ESE,121,0.0,0.0,91,0.00,,,0.00,WeatherCatV1.20B785,2013-11-30 08:43:00,
2013-11-30 03:48:00,16.5,14.3,30.63,ESE,122,0.0,0.0,91,0.00,,,0.00,WeatherCatV1.20B785,2013-11-30 08:48:00,
2013-11-30 03:53:00,16.7,14.5,30.63,SE,137,0.0,0.0,91,0.00,,,0.00,WeatherCatV1.20B785,2013-11-30 08:53:00,
2013-11-30 03:58:00,16.8,14.4,30.63,SE,127,0.0,0.0,90,0.00,,,0.00,WeatherCatV1.20B785,2013-11-30 08:58:00,
2013-11-30 04:03:00,17.1,14.9,30.63,SE,129,0.0,0.0,91,0.00,,,0.00,WeatherCatV1.20B785,2013-11-30 09:03:00,
2013-11-30 04:08:00,17.3,15.1,30.63,SE,126,0.0,0.0,91,0.00,,,0.00,WeatherCatV1.20B785,2013-11-30 09:08:00,
2013-11-30 04:13:00,17.3,14.9,30.63,SE,125,0.0,0.0,90,0.00,,,0.00,WeatherCatV1.20B785,2013-11-30 09:13:00,
2013-11-30 04:18:00,17.3,14.9,30.63,ESE,123,0.0,0.0,90,0.00,,,0.00,WeatherCatV1.20B785,2013-11-30 09:18:00,
2013-11-30 04:23:00,17.1,14.7,30.63,SE,126,0.0,0.0,90,0.00,,,0.00,WeatherCatV1.20B785,2013-11-30 09:23:00,
2013-11-30 04:28:00,16.9,14.5,30.63,ESE,119,0.0,0.0,90,0.00,,,0.00,WeatherCatV1.20B785,2013-11-30 09:28:00,
2013-11-30 04:33:00,16.7,14.3,30.63,SE,145,0.0,0.0,90,0.00,,,0.00,WeatherCatV1.20B785,2013-11-30 09:33:00,
2013-11-30 04:38:00,16.3,13.9,30.63,SE,132,0.0,0.0,90,0.00,,,0.00,WeatherCatV1.20B785,2013-11-30 09:38:00,
2013-11-30 04:43:00,16.2,13.8,30.63,SE,145,0.0,0.0,90,0.00,,,0.00,WeatherCatV1.20B785,2013-11-30 09:43:00,
2013-11-30 04:48:00,16.1,13.7,30.62,SE,142,0.0,0.0,90,0.00,,,0.00,WeatherCatV1.20B785,2013-11-30 09:48:00,
2013-11-30 04:53:00,16.2,13.8,30.62,ESE,120,0.0,0.0,90,0.00,,,0.00,WeatherCatV1.20B785,2013-11-30 09:53:00,
2013-11-30 04:58:00,16.2,13.8,30.62,SE,134,0.0,0.0,90,0.00,,,0.00,WeatherCatV1.20B785,2013-11-30 09:58:00,
2013-11-30 05:03:00,16.2,13.8,30.62,SE,130,0.0,0.0,90,0.00,,,0.00,WeatherCatV1.20B785,2013-11-30 10:03:00,
2013-11-30 05:08:00,16.3,13.9,30.62,SE,124,0.0,0.0,90,0.00,,,0.00,WeatherCatV1.20B785,2013-11-30 10:08:00,
2013-11-30 05:13:00,16.3,13.9,30.62,SE,124,0.0,0.0,90,0.00,,,0.00,WeatherCatV1.20B785,2013-11-30 10:13:00,
2013-11-30 05:18:00,16.6,14.2,30.62,ESE,121,0.0,0.0,90,0.00,,,0.00,WeatherCatV1.20B785,2013-11-30 10:18:00,
2013-11-30 05:23:00,16.6,14.2,30.61,SE,125,0.0,0.0,90,0.00,,,0.00,WeatherCatV1.20B785,2013-11-30 10:23:00,
2013-11-30 05:28:00,16.8,14.4,30.61,ESE,114,0.0,0.0,90,0.00,,,0.00,WeatherCatV1.20B785,2013-11-30 10:28:00,
2013-11-30 05:33:00,17.0,14.6,30.61,ESE,111,0.0,0.0,90,0.00,,,0.00,WeatherCatV1.20B785,2013-11-30 10:33:00,
2013-11-30 05:38:00,17.2,14.8,30.61,ESE,117,0.0,0.0,90,0.00,,,0.00,WeatherCatV1.20B785,2013-11-30 10:38:00,
2013-11-30 05:43:00,17.2,14.8,30.61,SE,128,0.0,0.0,90,0.00,,,0.00,WeatherCatV1.20B785,2013-11-30 10:43:00,
2013-11-30 05:48:00,17.4,15.0,30.60,ESE,120,0.0,0.0,90,0.00,,,0.00,WeatherCatV1.20B785,2013-11-30 10:48:00,
2013-11-30 05:53:00,17.5,15.1,30.60,SE,128,0.0,0.0,90,0.00,,,0.00,WeatherCatV1.20B785,2013-11-30 10:53:00,
2013-11-30 05:58:00,17.6,15.2,30.60,SE,124,0.0,0.0,90,0.00,,,0.00,WeatherCatV1.20B785,2013-11-30 10:58:00,
2013-11-30 06:03:00,17.5,15.1,30.60,East,101,0.0,0.0,90,0.00,,,0.00,WeatherCatV1.20B785,2013-11-30 11:03:00,
2013-11-30 06:08:00,17.5,15.1,30.60,SE,127,0.0,0.0,90,0.00,,,0.00,WeatherCatV1.20B785,2013-11-30 11:08:00,
2013-11-30 06:13:00,17.7,15.3,30.60,ESE,111,0.0,0.0,90,0.00,,,0.00,WeatherCatV1.20B785,2013-11-30 11:13:00,
2013-11-30 06:18:00,17.9,15.5,30.60,ESE,108,0.0,0.0,90,0.00,,,0.00,WeatherCatV1.20B785,2013-11-30 11:18:00,
2013-11-30 06:23:00,17.9,15.5,30.60,ESE,122,0.0,0.0,90,0.00,,,0.00,WeatherCatV1.20B785,2013-11-30 11:23:00,
2013-11-30 06:28:00,17.9,15.5,30.59,ESE,122,0.0,0.0,90,0.00,,,0.00,WeatherCatV1.20B785,2013-11-30 11:28:00,
2013-11-30 06:33:00,18.0,15.6,30.59,SE,133,0.0,0.0,90,0.00,,,0.00,WeatherCatV1.20B785,2013-11-30 11:33:00,
2013-11-30 06:38:00,18.1,15.7,30.59,SE,129,0.0,0.0,90,0.00,,,0.00,WeatherCatV1.20B785,2013-11-30 11:38:00,
2013-11-30 06:43:00,17.9,15.5,30.59,SE,128,0.0,0.0,90,0.00,,,0.00,WeatherCatV1.20B785,2013-11-30 11:43:00,
2013-11-30 06:48:00,17.9,15.5,30.59,SE,143,0.0,0.0,90,0.00,,,0.00,WeatherCatV1.20B785,2013-11-30 11:48:00,
2013-11-30 06:53:00,17.8,15.4,30.59,SE,130,0.0,0.0,90,0.00,,,0.00,WeatherCatV1.20B785,2013-11-30 11:53:00,
2013-11-30 06:58:00,17.8,15.4,30.59,ESE,110,0.0,0.0,90,0.00,,,0.00,WeatherCatV1.20B785,2013-11-30 11:58:00,
2013-11-30 07:03:00,17.9,15.5,30.58,SE,134,0.0,0.0,90,0.00,,,0.00,WeatherCatV1.20B785,2013-11-30 12:03:00,
2013-11-30 07:08:00,17.8,15.4,30.58,ESE,123,0.0,0.0,90,0.00,,,0.00,WeatherCatV1.20B785,2013-11-30 12:08:00,
2013-11-30 07:13:00,17.8,15.4,30.58,ESE,122,0.0,0.0,90,0.00,,,0.00,WeatherCatV1.20B785,2013-11-30 12:13:00,
2013-11-30 07:18:00,17.6,15.2,30.58,SE,129,0.0,0.0,90,0.00,,,0.00,WeatherCatV1.20B785,2013-11-30 12:18:00,
2013-11-30 07:23:00,17.5,15.1,30.58,SE,129,0.0,0.0,90,0.00,,,0.00,WeatherCatV1.20B785,2013-11-30 12:23:00,
2013-11-30 07:28:00,17.5,15.1,30.58,ESE,115,0.0,0.0,90,0.00,,,0.00,WeatherCatV1.20B785,2013-11-30 12:28:00,
2013-11-30 07:33:00,17.6,15.2,30.58,ESE,120,0.0,0.0,90,0.00,,,0.00,WeatherCatV1.20B785,2013-11-30 12:33:00,
2013-11-30 07:38:00,17.6,15.2,30.58,SE,124,0.0,0.0,90,0.00,,,0.00,WeatherCatV1.20B785,2013-11-30 12:38:00,
2013-11-30 07:43:00,17.7,15.3,30.58,ESE,108,0.0,0.0,90,0.00,,,0.00,WeatherCatV1.20B785,2013-11-30 12:43:00,
2013-11-30 07:48:00,17.7,15.3,30.58,East,82,0.0,0.0,90,0.00,,,0.00,WeatherCatV1.20B785,2013-11-30 12:48:00,
2013-11-30 07:53:00,17.9,15.5,30.58,SE,133,0.0,0.0,90,0.00,,,0.00,WeatherCatV1.20B785,2013-11-30 12:53:00,
2013-11-30 07:58:00,18.2,15.8,30.57,ESE,117,0.0,0.0,90,0.00,,,0.00,WeatherCatV1.20B785,2013-11-30 12:58:00,
2013-11-30 08:03:00,18.6,16.2,30.57,SE,124,0.0,0.0,90,0.00,,,0.00,WeatherCatV1.20B785,2013-11-30 13:03:00,
2013-11-30 08:08:00,18.8,16.1,30.57,SE,128,0.0,0.0,89,0.00,,,0.00,WeatherCatV1.20B785,2013-11-30 13:08:00,
2013-11-30 08:13:00,19.0,16.3,30.57,SE,124,0.0,0.0,89,0.00,,,0.00,WeatherCatV1.20B785,2013-11-30 13:13:00,
2013-11-30 08:18:00,19.4,16.7,30.56,ESE,104,0.0,0.0,89,0.00,,,0.00,WeatherCatV1.20B785,2013-11-30 13:18:00,
2013-11-30 08:23:00,19.5,16.5,30.56,East,98,0.0,0.0,88,0.00,,,0.00,WeatherCatV1.20B785,2013-11-30 13:23:00,
2013-11-30 08:28:00,19.7,16.7,30.56,SE,135,0.0,0.0,88,0.00,,,0.00,WeatherCatV1.20B785,2013-11-30 13:28:00,
2013-11-30 08:33:00,19.8,16.8,30.56,ESE,112,0.0,0.0,88,0.00,,,0.00,WeatherCatV1.20B785,2013-11-30 13:33:00,
2013-11-30 08:38:00,19.8,16.8,30.55,SE,126,0.0,0.0,88,0.00,,,0.00,WeatherCatV1.20B785,2013-11-30 13:38:00,
2013-11-30 08:43:00,20.3,17.3,30.55,ESE,121,0.0,0.0,88,0.00,,,0.00,WeatherCatV1.20B785,2013-11-30 13:43:00,
2013-11-30 08:48:00,20.7,17.5,30.55,East,99,0.0,0.0,87,0.00,,,0.00,WeatherCatV1.20B785,2013-11-30 13:48:00,
2013-11-30 08:53:00,20.8,17.5,30.55,ESE,113,0.0,0.0,87,0.00,,,0.00,WeatherCatV1.20B785,2013-11-30 13:53:00,
2013-11-30 08:58:00,21.0,17.8,30.54,SE,124,0.0,0.0,87,0.00,,,0.00,WeatherCatV1.20B785,2013-11-30 13:58:00,
2013-11-30 09:03:00,21.3,18.0,30.54,SE,129,0.0,0.0,87,0.00,,,0.00,WeatherCatV1.20B785,2013-11-30 14:03:00,
2013-11-30 09:08:00,21.6,18.1,30.53,ESE,115,0.0,0.0,86,0.00,,,0.00,WeatherCatV1.20B785,2013-11-30 14:08:00,
2013-11-30 09:13:00,22.0,18.5,30.53,SE,124,0.0,0.0,86,0.00,,,0.00,WeatherCatV1.20B785,2013-11-30 14:13:00,
2013-11-30 09:18:00,22.5,19.0,30.53,SE,136,0.0,0.0,86,0.00,,,0.00,WeatherCatV1.20B785,2013-11-30 14:18:00,
2013-11-30 09:23:00,23.3,19.2,30.53,SSE,158,0.0,0.0,84,0.00,,,0.00,WeatherCatV1.20B785,2013-11-30 14:23:00,
2013-11-30 09:28:00,23.9,19.5,30.52,SE,146,0.0,0.0,83,0.00,,,0.00,WeatherCatV1.20B785,2013-11-30 14:28:00,
2013-11-30 09:33:00,24.3,19.6,30.52,SE,141,0.0,0.0,82,0.00,,,0.00,WeatherCatV1.20B785,2013-11-30 14:33:00,
2013-11-30 09:38:00,24.5,19.5,30.52,ESE,117,0.0,0.0,81,0.00,,,0.00,WeatherCatV1.20B785,2013-11-30 14:38:00,
2013-11-30 09:43:00,24.8,19.8,30.52,SSE,150,0.0,0.0,81,0.00,,,0.00,WeatherCatV1.20B785,2013-11-30 14:43:00,
2013-11-30 09:48:00,24.9,19.6,30.52,SE,134,0.0,0.0,80,0.00,,,0.00,WeatherCatV1.20B785,2013-11-30 14:48:00,
2013-11-30 09:53:00,25.2,19.9,30.52,SE,146,0.0,0.0,80,0.00,,,0.00,WeatherCatV1.20B785,2013-11-30 14:53:00,
2013-11-30 09:58:00,25.3,19.7,30.52,SSE,153,0.0,0.0,79,0.00,,,0.00,WeatherCatV1.20B785,2013-11-30 14:58:00,
2013-11-30 10:03:00,25.4,19.5,30.52,SSE,159,0.0,0.0,78,0.00,,,0.00,WeatherCatV1.20B785,2013-11-30 15:03:00,
2013-11-30 10:08:00,25.7,19.8,30.51,SE,143,0.0,0.0,78,0.00,,,0.00,WeatherCatV1.20B785,2013-11-30 15:08:00,
2013-11-30 10:13:00,25.9,20.0,30.51,ESE,110,0.0,0.0,78,0.00,,,0.00,WeatherCatV1.20B785,2013-11-30 15:13:00,
2013-11-30 10:18:00,26.1,20.2,30.51,SE,141,0.0,0.0,78,0.00,,,0.00,WeatherCatV1.20B785,2013-11-30 15:18:00,
2013-11-30 10:23:00,26.3,20.4,30.52,SSE,150,0.0,0.0,78,0.00,,,0.00,WeatherCatV1.20B785,2013-11-30 15:23:00,
2013-11-30 10:28:00,26.7,20.5,30.52,SSE,160,0.0,0.0,77,0.00,,,0.00,WeatherCatV1.20B785,2013-11-30 15:28:00,
2013-11-30 10:33:00,27.1,20.6,30.51,SSE,155,0.0,0.0,76,0.00,,,0.00,WeatherCatV1.20B785,2013-11-30 15:33:00,
2013-11-30 10:38:00,27.4,20.5,30.51,SSE,150,0.0,0.0,75,0.00,,,0.00,WeatherCatV1.20B785,2013-11-30 15:38:00,
2013-11-30 10:43:00,27.8,20.9,30.51,South,172,0.0,0.0,75,0.00,,,0.00,WeatherCatV1.20B785,2013-11-30 15:43:00,
2013-11-30 10:48:00,28.1,20.9,30.51,SSE,148,0.0,0.0,74,0.00,,,0.00,WeatherCatV1.20B785,2013-11-30 15:48:00,
2013-11-30 10:53:00,28.3,21.1,30.50,SSE,160,0.0,0.0,74,0.00,,,0.00,WeatherCatV1.20B785,2013-11-30 15:53:00,
2013-11-30 10:58:00,28.5,21.0,30.50,SSE,148,0.0,0.0,73,0.00,,,0.00,WeatherCatV1.20B785,2013-11-30 15:58:00,
2013-11-30 11:03:00,28.8,20.9,30.49,SE,133,0.0,0.0,72,0.00,,,0.00,WeatherCatV1.20B785,2013-11-30 16:03:00,
2013-11-30 11:08:00,29.0,21.1,30.49,SE,127,0.0,0.0,72,0.00,,,0.00,WeatherCatV1.20B785,2013-11-30 16:08:00,
2013-11-30 11:13:00,29.2,21.3,30.49,SE,145,0.0,0.0,72,0.00,,,0.00,WeatherCatV1.20B785,2013-11-30 16:13:00,
2013-11-30 11:18:00,29.4,21.5,30.48,SE,145,0.0,0.0,72,0.00,,,0.00,WeatherCatV1.20B785,2013-11-30 16:18:00,
2013-11-30 11:23:00,29.6,21.4,30.48,SSE,162,0.0,0.0,71,0.00,,,0.00,WeatherCatV1.20B785,2013-11-30 16:23:00,
2013-11-30 11:28:00,30.0,21.4,30.47,SE,135,0.0,0.0,70,0.00,,,0.00,WeatherCatV1.20B785,2013-11-30 16:28:00,
2013-11-30 11:33:00,30.3,22.0,30.47,SE,128,0.0,0.0,71,0.00,,,0.00,WeatherCatV1.20B785,2013-11-30 16:33:00,
2013-11-30 11:38:00,30.4,21.8,30.47,SE,134,0.0,0.0,70,0.00,,,0.00,WeatherCatV1.20B785,2013-11-30 16:38:00,
2013-11-30 11:43:00,30.5,22.2,30.47,SE,140,0.0,0.0,71,0.00,,,0.00,WeatherCatV1.20B785,2013-11-30 16:43:00,
2013-11-30 11:48:00,30.7,22.1,30.46,SE,137,0.0,0.0,70,0.00,,,0.00,WeatherCatV1.20B785,2013-11-30 16:48:00,
2013-11-30 11:54:00,30.9,22.0,30.46,SSE,152,0.0,0.0,69,0.00,,,0.00,WeatherCatV1.20B785,2013-11-30 16:54:00,
2013-11-30 11:59:00,30.9,22.3,30.46,SE,141,0.0,0.0,70,0.00,,,0.00,WeatherCatV1.20B785,2013-11-30 16:59:00,
2013-11-30 12:04:00,31.0,22.4,30.46,SE,139,0.0,0.0,70,0.00,,,0.00,WeatherCatV1.20B785,2013-11-30 17:04:00,
2013-11-30 12:09:00,31.2,22.6,30.45,SSE,147,0.0,0.0,70,0.00,,,0.00,WeatherCatV1.20B785,2013-11-30 17:09:00,
2013-11-30 12:14:00,31.4,22.4,30.45,SE,136,0.0,0.0,69,0.00,,,0.00,WeatherCatV1.20B785,2013-11-30 17:14:00,
2013-11-30 12:19:00,31.5,22.5,30.44,ESE,117,0.0,0.0,69,0.00,,,0.00,WeatherCatV1.20B785,2013-11-30 17:19:00,
2013-11-30 12:24:00,31.5,22.5,30.44,SE,145,0.0,0.0,69,0.00,,,0.00,WeatherCatV1.20B785,2013-11-30 17:24:00,
2013-11-30 12:29:00,31.8,22.8,30.44,SE,142,0.0,0.0,69,0.00,,,0.00,WeatherCatV1.20B785,2013-11-30 17:29:00,
2013-11-30 12:34:00,32.3,23.3,30.44,South,188,0.0,0.0,69,0.00,,,0.00,WeatherCatV1.20B785,2013-11-30 17:34:00,
2013-11-30 12:39:00,32.8,23.1,30.44,SE,146,0.0,0.0,67,0.00,,,0.00,WeatherCatV1.20B785,2013-11-30 17:39:00,
2013-11-30 12:44:00,32.8,22.4,30.43,SSE,160,0.0,0.0,65,0.00,,,0.00,WeatherCatV1.20B785,2013-11-30 17:44:00,
2013-11-30 12:49:00,32.9,23.5,30.43,ESE,102,0.0,0.0,68,0.00,,,0.00,WeatherCatV1.20B785,2013-11-30 17:49:00,
2013-11-30 12:54:00,32.9,22.8,30.42,ESE,122,0.0,0.0,66,0.00,,,0.00,WeatherCatV1.20B785,2013-11-30 17:54:00,
2013-11-30 12:59:00,32.8,23.1,30.42,SSE,166,0.0,0.0,67,0.00,,,0.00,WeatherCatV1.20B785,2013-11-30 17:59:00,
2013-11-30 13:04:00,32.7,23.3,30.41,SE,130,0.0,0.0,68,0.00,,,0.00,WeatherCatV1.20B785,2013-11-30 18:04:00,
2013-11-30 13:09:00,32.6,23.6,30.40,SE,137,0.0,0.0,69,0.00,,,0.00,WeatherCatV1.20B785,2013-11-30 18:09:00,
2013-11-30 13:14:00,32.5,23.5,30.40,SSE,147,0.0,0.0,69,0.00,,,0.00,WeatherCatV1.20B785,2013-11-30 18:14:00,
2013-11-30 13:19:00,32.6,23.6,30.40,SE,134,0.0,0.0,69,0.00,,,0.00,WeatherCatV1.20B785,2013-11-30 18:19:00,
2013-11-30 13:24:00,32.6,23.2,30.39,SSE,152,0.0,0.0,68,0.00,,,0.00,WeatherCatV1.20B785,2013-11-30 18:24:00,
2013-11-30 13:29:00,32.5,23.1,30.39,SSE,163,0.0,0.0,68,0.00,,,0.00,WeatherCatV1.20B785,2013-11-30 18:29:00,
2013-11-30 13:34:00,32.6,23.2,30.38,SSE,147,0.0,0.0,68,0.00,,,0.00,WeatherCatV1.20B785,2013-11-30 18:34:00,
2013-11-30 13:39:00,32.6,23.6,30.38,SE,141,0.0,0.0,69,0.00,,,0.00,WeatherCatV1.20B785,2013-11-30 18:39:00,
2013-11-30 13:44:00,32.7,23.3,30.38,South,190,0.0,0.0,68,0.00,,,0.00,WeatherCatV1.20B785,2013-11-30 18:44:00,
2013-11-30 13:49:00,32.9,23.2,30.38,ESE,117,0.0,0.0,67,0.00,,,0.00,WeatherCatV1.20B785,2013-11-30 18:49:00,
2013-11-30 13:54:00,33.0,23.6,30.38,SSE,165,0.0,0.0,68,0.00,,,0.00,WeatherCatV1.20B785,2013-11-30 18:54:00,
2013-11-30 13:59:00,33.2,23.5,30.38,SSE,147,0.0,0.0,67,0.00,,,0.00,WeatherCatV1.20B785,2013-11-30 18:59:00,
2013-11-30 14:04:00,33.5,23.7,30.38,South,169,0.0,0.0,67,0.00,,,0.00,WeatherCatV1.20B785,2013-11-30 19:04:00,
2013-11-30 14:09:00,33.9,24.1,30.38,SE,141,0.0,0.0,67,0.00,,,0.00,WeatherCatV1.20B785,2013-11-30 19:09:00,
2013-11-30 14:14:00,34.0,23.9,30.38,SE,124,0.0,0.0,66,0.00,,,0.00,WeatherCatV1.20B785,2013-11-30 19:14:00,
2013-11-30 14:19:00,33.9,24.1,30.37,ESE,119,0.0,0.0,67,0.00,,,0.00,WeatherCatV1.20B785,2013-11-30 19:19:00,
2013-11-30 14:24:00,33.9,24.1,30.37,SE,143,0.0,0.0,67,0.00,,,0.00,WeatherCatV1.20B785,2013-11-30 19:24:00,
2013-11-30 14:29:00,34.0,23.9,30.36,SE,141,0.0,0.0,66,0.00,,,0.00,WeatherCatV1.20B785,2013-11-30 19:29:00,
2013-11-30 14:35:00,34.5,24.3,30.37,SSE,149,0.0,0.0,66,0.00,,,0.00,WeatherCatV1.20B785,2013-11-30 19:35:00,
2013-11-30 14:40:00,34.5,24.3,30.36,SSE,162,0.0,0.0,66,0.00,,,0.00,WeatherCatV1.20B785,2013-11-30 19:40:00,
2013-11-30 14:45:00,34.5,24.3,30.35,SSE,165,0.0,0.0,66,0.00,,,0.00,WeatherCatV1.20B785,2013-11-30 19:45:00,
2013-11-30 14:50:00,34.5,24.3,30.35,SE,142,0.0,0.0,66,0.00,,,0.00,WeatherCatV1.20B785,2013-11-30 19:50:00,
2013-11-30 14:55:00,34.5,24.3,30.34,SE,136,0.0,0.0,66,0.00,,,0.00,WeatherCatV1.20B785,2013-11-30 19:55:00,
2013-11-30 15:00:00,34.3,24.5,30.35,SE,144,0.0,0.0,67,0.00,,,0.00,WeatherCatV1.20B785,2013-11-30 20:00:00,
2013-11-30 15:05:00,34.1,24.3,30.34,SE,141,0.0,0.0,67,0.00,,,0.00,WeatherCatV1.20B785,2013-11-30 20:05:00,
2013-11-30 15:10:00,34.0,24.2,30.34,SSE,154,0.0,0.0,67,0.00,,,0.00,WeatherCatV1.20B785,2013-11-30 20:10:00,
2013-11-30 15:15:00,33.9,24.1,30.34,SSE,148,0.0,0.0,67,0.00,,,0.00,WeatherCatV1.20B785,2013-11-30 20:15:00,
2013-11-30 15:20:00,33.9,24.1,30.33,SE,140,0.0,0.0,67,0.00,,,0.00,WeatherCatV1.20B785,2013-11-30 20:20:00,
2013-11-30 15:25:00,33.9,24.1,30.32,South,174,0.0,0.0,67,0.00,,,0.00,WeatherCatV1.20B785,2013-11-30 20:25:00,
2013-11-30 15:30:00,34.1,24.3,30.32,SSW,192,0.0,0.0,67,0.00,,,0.00,WeatherCatV1.20B785,2013-11-30 20:30:00,
2013-11-30 15:35:00,34.3,24.5,30.33,SE,139,0.0,0.0,67,0.00,,,0.00,WeatherCatV1.20B785,2013-11-30 20:35:00,
2013-11-30 15:40:00,34.5,24.7,30.33,SSE,163,0.0,0.0,67,0.00,,,0.00,WeatherCatV1.20B785,2013-11-30 20:40:00,
2013-11-30 15:45:00,34.6,24.4,30.33,SE,137,0.0,0.0,66,0.00,,,0.00,WeatherCatV1.20B785,2013-11-30 20:45:00,
2013-11-30 15:50:00,34.5,24.3,30.32,SE,145,0.0,0.0,66,0.00,,,0.00,WeatherCatV1.20B785,2013-11-30 20:50:00,
2013-11-30 15:55:00,34.4,24.6,30.33,SSE,162,0.0,0.0,67,0.00,,,0.00,WeatherCatV1.20B785,2013-11-30 20:55:00,
2013-11-30 16:00:00,34.1,24.3,30.32,ESE,121,0.0,0.0,67,0.00,,,0.00,WeatherCatV1.20B785,2013-11-30 21:00:00,
2013-11-30 16:05:00,34.0,24.2,30.32,SE,136,0.0,0.0,67,0.00,,,0.00,WeatherCatV1.20B785,2013-11-30 21:05:00,
2013-11-30 16:10:00,33.7,24.3,30.32,SSE,150,0.0,0.0,68,0.00,,,0.00,WeatherCatV1.20B785,2013-11-30 21:10:00,
2013-11-30 16:15:00,33.6,24.2,30.32,ESE,121,0.0,0.0,68,0.00,,,0.00,WeatherCatV1.20B785,2013-11-30 21:15:00,
2013-11-30 16:20:00,33.5,24.1,30.32,SE,145,0.0,0.0,68,0.00,,,0.00,WeatherCatV1.20B785,2013-11-30 21:20:00,
2013-11-30 16:25:00,33.3,24.2,30.32,South,171,0.0,0.0,69,0.00,,,0.00,WeatherCatV1.20B785,2013-11-30 21:25:00,
2013-11-30 16:30:00,33.2,24.1,30.32,SE,146,0.0,0.0,69,0.00,,,0.00,WeatherCatV1.20B785,2013-11-30 21:30:00,
2013-11-30 16:35:00,33.0,24.0,30.32,ESE,106,0.0,0.0,69,0.00,,,0.00,WeatherCatV1.20B785,2013-11-30 21:35:00,
2013-11-30 16:40:00,32.6,23.9,30.32,SSE,156,0.0,0.0,70,0.00,,,0.00,WeatherCatV1.20B785,2013-11-30 21:40:00,
2013-11-30 16:45:00,32.4,23.7,30.32,East,95,0.0,0.0,70,0.00,,,0.00,WeatherCatV1.20B785,2013-11-30 21:45:00,
2013-11-30 16:50:00,32.0,23.3,30.32,SE,134,0.0,0.0,70,0.00,,,0.00,WeatherCatV1.20B785,2013-11-30 21:50:00,
2013-11-30 16:55:00,31.7,23.4,30.31,SSE,152,0.0,0.0,71,0.00,,,0.00,WeatherCatV1.20B785,2013-11-30 21:55:00,
2013-11-30 17:00:00,31.6,23.3,30.31,SE,133,0.0,0.0,71,0.00,,,0.00,WeatherCatV1.20B785,2013-11-30 22:00:00,
2013-11-30 17:05:00,31.5,23.2,30.31,SE,138,0.0,0.0,71,0.00,,,0.00,WeatherCatV1.20B785,2013-11-30 22:05:00,
2013-11-30 17:10:00,31.3,23.3,30.31,SE,134,0.0,0.0,72,0.00,,,0.00,WeatherCatV1.20B785,2013-11-30 22:10:00,
2013-11-30 17:15:00,31.1,23.1,30.31,SE,134,0.0,0.0,72,0.00,,,0.00,WeatherCatV1.20B785,2013-11-30 22:15:00,
2013-11-30 17:20:00,30.8,22.9,30.31,SE,146,0.0,0.0,72,0.00,,,0.00,WeatherCatV1.20B785,2013-11-30 22:20:00,
2013-11-30 17:25:00,30.6,23.0,30.31,SE,129,0.0,0.0,73,0.00,,,0.00,WeatherCatV1.20B785,2013-11-30 22:25:00,
2013-11-30 17:30:00,30.4,22.8,30.31,ESE,122,0.0,0.0,73,0.00,,,0.00,WeatherCatV1.20B785,2013-11-30 22:30:00,
2013-11-30 17:35:00,30.1,22.8,30.31,SE,133,0.0,0.0,74,0.00,,,0.00,WeatherCatV1.20B785,2013-11-30 22:35:00,
2013-11-30 17:40:00,29.8,22.5,30.31,ESE,115,0.0,0.0,74,0.00,,,0.00,WeatherCatV1.20B785,2013-11-30 22:40:00,
2013-11-30 17:45:00,29.5,22.6,30.31,ESE,115,0.0,0.0,75,0.00,,,0.00,WeatherCatV1.20B785,2013-11-30 22:45:00,
2013-11-30 17:50:00,29.3,22.1,30.31,SE,146,0.0,0.0,74,0.00,,,0.00,WeatherCatV1.20B785,2013-11-30 22:50:00,
2013-11-30 17:55:00,29.3,22.7,30.31,ESE,122,0.0,0.0,76,0.00,,,0.00,WeatherCatV1.20B785,2013-11-30 22:55:00,
2013-11-30 18:00:00,29.7,22.8,30.30,SE,141,0.0,0.0,75,0.00,,,0.00,WeatherCatV1.20B785,2013-11-30 23:00:00,
2013-11-30 18:05:00,30.0,23.0,30.30,SE,126,0.0,0.0,75,0.00,,,0.00,WeatherCatV1.20B785,2013-11-30 23:05:00,
2013-11-30 18:10:00,30.1,22.8,30.30,SE,140,0.0,0.0,74,0.00,,,0.00,WeatherCatV1.20B785,2013-11-30 23:10:00,
2013-11-30 18:15:00,30.1,22.8,30.30,SSE,154,0.0,0.0,74,0.00,,,0.00,WeatherCatV1.20B785,2013-11-30 23:15:00,
2013-11-30 18:20:00,30.2,22.9,30.30,SE,129,0.0,0.0,74,0.00,,,0.00,WeatherCatV1.20B785,2013-11-30 23:20:00,
2013-11-30 18:25:00,30.2,22.9,30.30,SE,129,0.0,0.0,74,0.00,,,0.00,WeatherCatV1.20B785,2013-11-30 23:25:00,
2013-11-30 18:30:00,30.0,22.7,30.30,SE,124,0.0,0.0,74,0.00,,,0.00,WeatherCatV1.20B785,2013-11-30 23:30:00,
2013-11-30 18:35:00,29.7,22.8,30.29,SE,124,0.0,0.0,75,0.00,,,0.00,WeatherCatV1.20B785,2013-11-30 23:35:00,
2013-11-30 18:40:00,29.6,22.7,30.29,SE,138,0.0,0.0,75,0.00,,,0.00,WeatherCatV1.20B785,2013-11-30 23:40:00,
2013-11-30 18:45:00,29.7,22.8,30.29,SE,137,0.0,0.0,75,0.00,,,0.00,WeatherCatV1.20B785,2013-11-30 23:45:00,
2013-11-30 18:50:00,29.8,22.9,30.29,East,94,0.0,0.0,75,0.00,,,0.00,WeatherCatV1.20B785,2013-11-30 23:50:00,
2013-11-30 18:55:00,29.2,22.3,30.30,ESE,123,0.0,0.0,75,0.00,,,0.00,WeatherCatV1.20B785,2013-11-30 23:55:00,
2013-11-30 19:00:00,28.6,22.0,30.30,SE,139,0.0,0.0,76,0.00,,,0.00,WeatherCatV1.20B785,2013-12-01 00:00:00,
2013-11-30 19:05:00,28.3,22.0,30.30,ESE,119,0.0,0.0,77,0.00,,,0.00,WeatherCatV1.20B785,2013-12-01 00:05:00,
2013-11-30 19:10:00,28.2,22.2,30.30,ESE,114,0.0,0.0,78,0.00,,,0.00,WeatherCatV1.20B785,2013-12-01 00:10:00,
2013-11-30 19:15:00,28.7,22.4,30.29,ESE,121,3.0,4.0,77,0.00,,,0.00,WeatherCatV1.20B785,2013-12-01 00:15:00,
2013-11-30 19:20:00,28.5,22.2,30.30,ESE,115,1.0,3.0,77,0.00,,,0.00,WeatherCatV1.20B785,2013-12-01 00:20:00,
2013-11-30 19:25:00,28.7,22.4,30.30,ESE,107,1.0,3.0,77,0.00,,,0.00,WeatherCatV1.20B785,2013-12-01 00:25:00,
2013-11-30 19:30:00,28.5,22.5,30.30,SE,140,2.0,4.0,78,0.00,,,0.00,WeatherCatV1.20B785,2013-12-01 00:30:00,
2013-11-30 19:35:00,28.5,22.5,30.30,SE,139,2.0,3.0,78,0.00,,,0.00,WeatherCatV1.20B785,2013-12-01 00:35:00,
2013-11-30 19:40:00,28.5,22.5,30.30,SE,140,2.0,2.0,78,0.00,,,0.00,WeatherCatV1.20B785,2013-12-01 00:40:00,
2013-11-30 19:45:00,28.1,22.1,30.30,SE,124,1.0,2.0,78,0.00,,,0.00,WeatherCatV1.20B785,2013-12-01 00:45:00,
2013-11-30 19:50:00,27.9,22.2,30.29,ESE,122,3.0,4.0,79,0.00,,,0.00,WeatherCatV1.20B785,2013-12-01 00:50:00,
2013-11-30 19:55:00,28.0,22.4,30.29,SE,126,1.0,4.0,79,0.00,,,0.00,WeatherCatV1.20B785,2013-12-01 00:55:00,
2013-11-30 20:00:00,27.9,22.2,30.29,ESE,113,2.0,3.0,79,0.00,,,0.00,WeatherCatV1.20B785,2013-12-01 01:00:00,
2013-11-30 20:05:00,27.8,22.1,30.29,East,88,3.0,5.0,79,0.00,,,0.00,WeatherCatV1.20B785,2013-12-01 01:05:00,
2013-11-30 20:10:00,28.0,22.4,30.29,SE,133,3.0,5.0,79,0.00,,,0.00,WeatherCatV1.20B785,2013-12-01 01:10:00,
2013-11-30 20:15:00,27.6,22.0,30.29,ESE,121,0.0,1.0,79,0.00,,,0.00,WeatherCatV1.20B785,2013-12-01 01:15:00,
2013-11-30 20:20:00,27.3,22.0,30.29,SE,127,2.0,3.0,80,0.00,,,0.00,WeatherCatV1.20B785,2013-12-01 01:20:00,
2013-11-30 20:25:00,27.5,22.2,30.29,ESE,121,0.0,4.0,80,0.00,,,0.00,WeatherCatV1.20B785,2013-12-01 01:25:00,
2013-11-30 20:30:00,27.5,22.2,30.28,SE,128,2.0,4.0,80,0.00,,,0.00,WeatherCatV1.20B785,2013-12-01 01:30:00,
2013-11-30 20:35:00,27.5,22.2,30.28,ESE,115,2.0,2.0,80,0.00,,,0.00,WeatherCatV1.20B785,2013-12-01 01:35:00,
2013-11-30 20:40:00,27.5,22.5,30.28,SE,129,2.0,5.0,81,0.00,,,0.00,WeatherCatV1.20B785,2013-12-01 01:40:00,
2013-11-30 20:45:00,27.3,22.0,30.28,ESE,122,2.0,4.0,80,0.00,,,0.00,WeatherCatV1.20B785,2013-12-01 01:45:00,
2013-11-30 20:48:00,27.1,21.8,30.27,ESE,120,1.0,2.0,80,0.00,,,0.00,WeatherCatV1.20B785,2013-12-01 01:48:00,
2013-11-30 20:53:00,27.1,22.1,30.27,ESE,118,2.0,4.0,81,0.00,,,0.00,WeatherCatV1.20B785,2013-12-01 01:53:00,
2013-11-30 20:58:00,27.3,22.2,30.27,SE,129,1.0,5.0,81,0.00,,,0.00,WeatherCatV1.20B785,2013-12-01 01:58:00,
2013-11-30 21:03:00,27.0,22.0,30.27,ESE,118,5.0,5.0,81,0.00,,,0.00,WeatherCatV1.20B785,2013-12-01 02:03:00,
2013-11-30 21:08:00,26.9,21.9,30.27,SE,129,2.0,4.0,81,0.00,,,0.00,WeatherCatV1.20B785,2013-12-01 02:08:00,
2013-11-30 21:13:00,26.4,21.4,30.27,SE,136,2.0,4.0,81,0.00,,,0.00,WeatherCatV1.20B785,2013-12-01 02:13:00,
2013-11-30 21:18:00,26.1,21.4,30.27,SE,136,2.0,4.0,82,0.00,,,0.00,WeatherCatV1.20B785,2013-12-01 02:18:00,
2013-11-30 21:23:00,26.0,21.6,30.27,ESE,117,2.0,3.0,83,0.00,,,0.00,WeatherCatV1.20B785,2013-12-01 02:23:00,
2013-11-30 21:28:00,25.9,21.5,30.27,SE,128,2.0,3.0,83,0.00,,,0.00,WeatherCatV1.20B785,2013-12-01 02:28:00,
2013-11-30 21:33:00,25.8,21.4,30.27,ESE,115,1.0,3.0,83,0.00,,,0.00,WeatherCatV1.20B785,2013-12-01 02:33:00,
2013-11-30 21:38:00,25.8,21.6,30.27,SE,124,3.0,3.0,84,0.00,,,0.00,WeatherCatV1.20B785,2013-12-01 02:38:00,
2013-11-30 21:43:00,25.5,21.1,30.27,SE,143,2.0,3.0,83,0.00,,,0.00,WeatherCatV1.20B785,2013-12-01 02:43:00,
2013-11-30 21:48:00,25.5,21.4,30.27,SE,140,2.0,3.0,84,0.00,,,0.00,WeatherCatV1.20B785,2013-12-01 02:48:00,
2013-11-30 21:53:00,25.4,21.2,30.27,SE,134,1.0,3.0,84,0.00,,,0.00,WeatherCatV1.20B785,2013-12-01 02:53:00,
2013-11-30 21:58:00,25.3,21.2,30.27,SE,141,1.0,3.0,84,0.00,,,0.00,WeatherCatV1.20B785,2013-12-01 02:58:00,
2013-11-30 22:03:00,25.2,21.3,30.27,SSE,160,1.0,3.0,85,0.00,,,0.00,WeatherCatV1.20B785,2013-12-01 03:03:00,
2013-11-30 22:08:00,25.2,21.3,30.27,ESE,117,0.0,2.0,85,0.00,,,0.00,WeatherCatV1.20B785,2013-12-01 03:08:00,
2013-11-30 22:13:00,25.2,21.3,30.27,West,280,0.0,1.0,85,0.00,,,0.00,WeatherCatV1.20B785,2013-12-01 03:13:00,
2013-11-30 22:19:00,24.8,20.9,30.27,SE,136,1.0,2.0,85,0.00,,,0.00,WeatherCatV1.20B785,2013-12-01 03:19:00,
2013-11-30 22:24:00,24.8,20.9,30.27,SE,133,0.0,2.0,85,0.00,,,0.00,WeatherCatV1.20B785,2013-12-01 03:24:00,
2013-11-30 22:29:00,24.7,20.9,30.27,ESE,119,1.0,1.0,85,0.00,,,0.00,WeatherCatV1.20B785,2013-12-01 03:29:00,
2013-11-30 22:34:00,24.7,21.1,30.26,ESE,115,0.0,3.0,86,0.00,,,0.00,WeatherCatV1.20B785,2013-12-01 03:34:00,
2013-11-30 22:39:00,24.7,21.1,30.26,SE,129,1.0,1.0,86,0.00,,,0.00,WeatherCatV1.20B785,2013-12-01 03:39:00,
2013-11-30 22:44:00,24.6,21.0,30.26,SE,128,0.0,1.0,86,0.00,,,0.00,WeatherCatV1.20B785,2013-12-01 03:44:00,
2013-11-30 22:49:00,24.5,20.9,30.26,East,85,0.0,1.0,86,0.00,,,0.00,WeatherCatV1.20B785,2013-12-01 03:49:00,
2013-11-30 22:54:00,24.2,20.6,30.26,East,98,0.0,1.0,86,0.00,,,0.00,WeatherCatV1.20B785,2013-12-01 03:54:00,
2013-11-30 22:59:00,24.1,20.8,30.26,East,82,0.0,0.0,87,0.00,,,0.00,WeatherCatV1.20B785,2013-12-01 03:59:00,
2013-11-30 23:04:00,24.0,20.7,30.26,NNE,32,0.0,0.0,87,0.00,,,0.00,WeatherCatV1.20B785,2013-12-01 04:04:00,
2013-11-30 23:09:00,23.7,20.4,30.26,SW,236,0.0,0.0,87,0.00,,,0.00,WeatherCatV1.20B785,2013-12-01 04:09:00,
2013-11-30 23:14:00,23.7,20.7,30.26,ESE,119,0.0,1.0,88,0.00,,,0.00,WeatherCatV1.20B785,2013-12-01 04:14:00,
2013-11-30 23:19:00,23.8,20.8,30.26,SE,134,0.0,2.0,88,0.00,,,0.00,WeatherCatV1.20B785,2013-12-01 04:19:00,
2013-11-30 23:24:00,23.8,20.5,30.26,SE,133,1.0,1.0,87,0.00,,,0.00,WeatherCatV1.20B785,2013-12-01 04:24:00,
2013-11-30 23:29:00,24.0,20.7,30.25,ESE,111,0.0,2.0,87,0.00,,,0.00,WeatherCatV1.20B785,2013-12-01 04:29:00,
2013-11-30 23:34:00,24.1,20.8,30.25,ESE,118,0.0,3.0,87,0.00,,,0.00,WeatherCatV1.20B785,2013-12-01 04:34:00,
2013-11-30 23:39:00,24.0,20.7,30.25,SE,124,0.0,2.0,87,0.00,,,0.00,WeatherCatV1.20B785,2013-12-01 04:39:00,
2013-11-30 23:44:00,24.2,21.2,30.25,ESE,119,1.0,4.0,88,0.00,,,0.00,WeatherCatV1.20B785,2013-12-01 04:44:00,
2013-11-30 23:49:00,24.3,21.0,30.25,ENE,78,1.0,1.0,87,0.00,,,0.00,WeatherCatV1.20B785,2013-12-01 04:49:00,
2013-11-30 23:54:00,24.0,20.7,30.25,SE,127,3.0,3.0,87,0.00,,,0.00,WeatherCatV1.20B785,2013-12-01 04:54:00,
2013-11-30 23:59:00,24.0,20.7,30.25,SE,133,0.0,1.0,87,0.00,,,0.00,WeatherCatV1.20B785,2013-12-01 04:59:00,